Advance, MO (63730)

10:56 PM CDT on August 31, 2015 (GMT -0500)
East Gordonville | | Change Station
CLOSE
Current Station
Personal Weather Station
Location: Cape Girardeau, MO
Elevation: 397 ft
Nearby Weather Stations

Elev 397 ft 37.32 °N, 89.66 °W | Updated 28 seconds ago

Clear
Clear
72.0 °F
Feels Like 72.0 °F
N
0.0
Wind Variable Wind from NE
Gusts 0.0 mph

Today
High -- | Low -- °F
--% Chance of Precip.
Yesterday
High -- | Low -- °F
Precip. -- in
6:29 AM 7:29 PM
Waning Gibbous, 92% visible
Pressure 30.06 in
Visibility 10.0 miles
Clouds Clear
Dew Point 70 °F
Humidity 94%
Rainfall in
Snow Depth Not available.
UV 0.0 out of 12
Pollen 10.10 out of 12
Air Quality Not available.
Flu Activity Not available.
METAR KCGI 010353Z AUTO 11003KT 10SM CLR 22/20 A3006 RMK AO2 SLP177 T02220200
Pressure 30.06 in
Visibility 10.0 miles
Clouds Clear
Dew Point 70 °F
Humidity 94%
Rainfall in
Snow Depth Not available.
UV 0.0 out of 12
Pollen 10.10 out of 12
Air Quality Not available.
Flu Activity Not available.
METAR KCGI 010353Z AUTO 11003KT 10SM CLR 22/20 A3006 RMK AO2 SLP177 T02220200

10-Day Weather Forecast

×

Almanac

Astronomy

Aug. 31, 2015 Rise Set
Actual Time
Civil Twilight
Nautical Twilight
Astronomical Twilight
Moon
Length of Visible Light
Length of Day
Tomorrow will be .
, % of the Moon is Illuminated

Today's Extremes

State Highs State Lows

Community

WunderPhotos

Upload Photos

1,851,475 photos uploaded!

WunderBlogs® & News

Nearby

Air Quality

  Air Quality AQ Index Pollutant
Not available.

Snow Depth

Station Depth Elevation

Earthquake Activity

City Distance Mag. Time & Date
Minimum magnitude displayed is 2.5.

Coastal Water Temperatures

Place Temperature

Stations

Nearby Weather Stations

Station Location Temp. Windchill Dew Point Humidity Wind Precip. Elev Updated Type